Time;durP1;ratioP1;P1;durP2;ratioP2;P2;SDS_P1;SDS_P2;PMS_P1;PMS_P2;Temp;Humidity;BMP_temperature;BMP_pressure;BME280_temperature;BME280_humidity;BME280_pressure;Samples;Min_cycle;Max_cycle;Signal;HPM_P1;HPM_P2
2022/11/26 00:00:51;;;;;;;9.40;7.07;;;;;;;5.52;100.00;102142.38;2047500;28;20355;-61
2022/11/26 00:01:51;;;;;;;8.25;6.80;;;;;;;5.54;100.00;102140.03;2047804;28;20198;-60
2022/11/26 00:02:53;;;;;;;11.40;8.53;;;;;;;5.58;100.00;102140.09;2047559;28;20685;-60
2022/11/26 00:03:55;;;;;;;8.82;7.20;;;;;;;5.60;100.00;102144.09;2048146;28;20673;-61
2022/11/26 00:04:58;;;;;;;9.50;7.70;;;;;;;5.62;100.00;102147.28;2047954;28;20209;-61
2022/11/26 00:05:58;;;;;;;9.30;7.60;;;;;;;5.05;100.00;102051.06;2047925;28;20209;-61
2022/11/26 00:06:59;;;;;;;9.00;7.00;;;;;;;5.65;100.00;102140.28;2048045;28;20209;-61
2022/11/26 00:08:00;;;;;;;8.03;6.97;;;;;;;5.46;100.00;102123.75;2048258;28;20276;-61
2022/11/26 00:09:04;;;;;;;9.70;6.90;;;;;;;5.01;100.00;102035.66;2048190;28;20198;-60
2022/11/26 00:10:12;;;;;;;8.10;6.95;;;;;;;5.69;100.00;102147.44;2047949;28;20207;-60
2022/11/26 00:11:15;;;;;;;8.27;6.55;;;;;;;5.36;100.00;102094.91;2048089;28;20286;-60
2022/11/26 00:12:18;;;;;;;8.20;6.45;;;;;;;5.73;100.00;102150.25;2047022;29;20208;-60
2022/11/26 00:13:22;;;;;;;8.15;6.57;;;;;;;5.79;100.00;102148.81;2047837;28;20590;-60
2022/11/26 00:14:22;;;;;;;8.02;6.40;;;;;;;5.81;100.00;102150.06;2048209;28;20653;-61
2022/11/26 00:15:26;;;;;;;8.77;6.67;;;;;;;5.26;100.00;102057.00;2047622;28;20618;-61
2022/11/26 00:16:28;;;;;;;8.90;7.25;;;;;;;5.86;100.00;102159.97;2047998;29;20245;-61
2022/11/26 00:17:28;;;;;;;9.32;7.10;;;;;;;5.60;100.00;102102.84;2048034;28;20289;-60
2022/11/26 00:18:28;;;;;;;8.27;6.50;;;;;;;5.93;100.00;102155.41;2047350;28;20216;-60
2022/11/26 00:19:29;;;;;;;10.83;6.73;;;;;;;5.94;100.00;102153.47;2048207;28;20190;-61
2022/11/26 00:20:30;;;;;;;7.17;5.97;;;;;;;5.95;100.00;102144.03;2047845;28;20237;-60
2022/11/26 00:21:34;;;;;;;7.57;6.00;;;;;;;5.81;100.00;102139.06;2047729;28;20196;-62
2022/11/26 00:22:40;;;;;;;7.93;6.10;;;;;;;5.98;100.00;102152.34;2047455;28;20699;-60
2022/11/26 00:23:42;;;;;;;10.55;7.47;;;;;;;6.01;100.00;102145.34;2048391;28;20226;-61
2022/11/26 00:24:42;;;;;;;9.90;7.10;;;;;;;6.01;100.00;102145.34;2047676;29;20211;-60
2022/11/26 00:25:47;;;;;;;9.73;7.10;;;;;;;6.00;100.00;102147.28;2047911;28;20203;-61
2022/11/26 00:26:47;;;;;;;9.05;6.57;;;;;;;6.01;100.00;102139.84;2047819;28;20217;-61
2022/11/26 00:27:49;;;;;;;13.37;7.03;;;;;;;6.00;100.00;102141.78;2047911;28;20214;-61
2022/11/26 00:29:00;;;;;;;9.85;7.55;;;;;;;6.01;100.00;102148.88;2047406;28;20664;-60
2022/11/26 00:30:04;;;;;;;11.20;6.85;;;;;;;6.01;100.00;102143.34;2047838;28;20185;-60
2022/11/26 00:31:11;;;;;;;8.88;6.55;;;;;;;5.96;100.00;102146.44;2047661;28;20223;-62
2022/11/26 00:32:17;;;;;;;9.88;6.40;;;;;;;5.94;100.00;102146.00;2047217;28;20290;-60
2022/11/26 00:33:17;;;;;;;7.75;6.18;;;;;;;5.84;100.00;102127.31;2048402;28;20191;-61
2022/11/26 00:34:18;;;;;;;9.23;6.13;;;;;;;5.92;100.00;102145.56;2047969;28;20198;-61
2022/11/26 00:35:19;;;;;;;8.67;6.17;;;;;;;5.91;100.00;102146.75;2047309;28;20568;-60
2022/11/26 00:36:25;;;;;;;8.77;6.23;;;;;;;5.90;100.00;102139.63;2047741;29;20199;-60
2022/11/26 00:37:32;;;;;;;8.88;6.53;;;;;;;5.88;100.00;102141.94;2047870;28;20194;-60
2022/11/26 00:38:33;;;;;;;9.73;6.88;;;;;;;5.87;100.00;102145.06;2047974;28;20664;-60
2022/11/26 00:39:35;;;;;;;8.37;6.00;;;;;;;5.83;100.00;102142.25;2047353;28;20556;-62
2022/11/26 00:40:36;;;;;;;8.18;6.50;;;;;;;5.82;100.00;102146.16;2046607;28;20490;-60
2022/11/26 00:41:37;;;;;;;7.63;6.27;;;;;;;5.85;100.00;102141.88;2048064;28;20185;-60
2022/11/26 00:42:38;;;;;;;9.30;6.88;;;;;;;5.82;100.00;102148.09;2047512;28;20214;-60
2022/11/26 00:43:38;;;;;;;7.63;6.43;;;;;;;5.81;100.00;102136.31;2048153;28;20183;-60
2022/11/26 00:44:39;;;;;;;8.93;6.70;;;;;;;5.73;100.00;102131.78;2048001;29;20194;-61
2022/11/26 00:45:39;;;;;;;7.90;6.77;;;;;;;5.82;100.00;102150.84;2047538;29;20199;-60
2022/11/26 00:46:40;;;;;;;8.17;6.57;;;;;;;5.83;100.00;102145.00;2047763;28;20249;-61
2022/11/26 00:47:40;;;;;;;7.70;6.40;;;;;;;5.82;100.00;102150.84;2047771;28;20571;-61
2022/11/26 00:48:41;;;;;;;8.50;6.83;;;;;;;5.03;100.00;102033.34;2047772;28;20199;-61
2022/11/26 00:49:41;;;;;;;11.00;6.50;;;;;;;5.77;100.00;102151.13;2046837;28;20187;-60
2022/11/26 00:50:46;;;;;;;7.80;6.53;;;;;;;5.05;100.00;102048.31;2047363;28;20220;-60
2022/11/26 00:51:48;;;;;;;8.70;6.45;;;;;;;5.39;100.00;102101.63;2047978;28;20183;-61
2022/11/26 00:52:51;;;;;;;7.38;6.47;;;;;;;5.75;100.00;102156.19;2047655;28;20188;-60
2022/11/26 00:54:00;;;;;;;9.57;6.28;;;;;;;5.78;100.00;102150.75;2046868;29;20756;-61
2022/11/26 00:55:06;;;;;;;10.15;6.25;;;;;;;4.88;100.00;102007.50;2048148;29;20664;-60
2022/11/26 00:56:17;;;;;;;8.15;6.40;;;;;;;5.80;100.00;102155.94;2047691;28;20665;-60
2022/11/26 00:57:17;;;;;;;8.48;6.53;;;;;;;5.82;100.00;102159.09;2048253;29;20191;-62
2022/11/26 00:58:29;;;;;;;7.97;6.07;;;;;;;5.85;100.00;102159.16;2047627;28;20245;-61
2022/11/26 00:59:29;;;;;;;8.48;6.70;;;;;;;5.88;100.00;102161.22;2047485;28;20229;-60
2022/11/26 01:00:33;;;;;;;9.80;6.43;;;;;;;5.86;100.00;102169.03;2047222;28;20190;-61
2022/11/26 01:01:33;;;;;;;8.27;6.60;;;;;;;5.83;100.00;102146.94;2047617;28;20195;-61
2022/11/26 01:02:33;;;;;;;8.00;6.47;;;;;;;5.90;100.00;102156.13;2047333;28;20188;-61
2022/11/26 01:03:34;;;;;;;10.00;7.10;;;;;;;5.90;100.00;102156.13;2046818;28;20509;-60
2022/11/26 01:04:34;;;;;;;8.83;6.43;;;;;;;5.92;100.00;102153.81;2047678;28;20190;-60
2022/11/26 01:05:35;;;;;;;9.03;7.07;;;;;;;5.90;100.00;102153.38;2047235;28;20657;-61
2022/11/26 01:06:39;;;;;;;8.80;6.55;;;;;;;5.93;100.00;102152.66;2048126;28;20204;-60
2022/11/26 01:07:40;;;;;;;9.30;7.10;;;;;;;5.34;100.00;102058.72;2047761;29;20683;-61
2022/11/26 01:08:41;;;;;;;8.30;6.53;;;;;;;5.93;100.00;102152.66;2047606;28;20195;-60
2022/11/26 01:09:44;;;;;;;8.33;6.80;;;;;;;5.83;100.00;102152.44;2047538;28;20237;-60
2022/11/26 01:10:45;;;;;;;7.68;6.10;;;;;;;5.98;100.00;102157.88;2046755;29;20206;-61
2022/11/26 01:11:46;;;;;;;7.80;6.27;;;;;;;5.94;100.00;102150.72;2047512;28;20190;-60
2022/11/26 01:12:47;;;;;;;9.27;6.05;;;;;;;5.95;100.00;102155.06;2047162;28;20202;-60
2022/11/26 01:13:50;;;;;;;8.18;6.20;;;;;;;5.55;100.00;102080.34;2047477;28;20183;-60
2022/11/26 01:14:50;;;;;;;9.15;6.07;;;;;;;5.98;100.00;102151.56;2047184;28;20195;-61
2022/11/26 01:15:52;;;;;;;7.43;6.30;;;;;;;5.88;100.00;102141.13;2046214;28;20183;-60
2022/11/26 01:16:55;;;;;;;9.52;6.75;;;;;;;5.89;100.00;102151.78;2047505;29;20184;-61
2022/11/26 01:17:56;;;;;;;9.25;6.45;;;;;;;5.86;100.00;102149.78;2047311;28;20668;-61
2022/11/26 01:18:58;;;;;;;7.93;6.23;;;;;;;5.82;100.00;102150.84;2045936;28;20581;-61
2022/11/26 01:19:58;;;;;;;8.68;6.07;;;;;;;5.76;100.00;102147.59;2047781;28;20198;-61
2022/11/26 01:20:59;;;;;;;8.60;6.50;;;;;;;5.75;100.00;102151.47;2047025;28;20206;-61
2022/11/26 01:21:59;;;;;;;9.70;6.23;;;;;;;5.69;100.00;102147.44;2046013;29;20755;-60
2022/11/26 01:23:00;;;;;;;6.90;5.87;;;;;;;5.69;100.00;102144.66;2047930;28;20217;-60
2022/11/26 01:24:00;;;;;;;7.87;6.13;;;;;;;5.69;100.00;102154.91;2046092;28;20187;-60
2022/11/26 01:25:01;;;;;;;6.77;5.93;;;;;;;5.66;100.00;102158.34;2048071;28;20694;-60
2022/11/26 01:26:01;;;;;;;7.43;5.77;;;;;;;5.64;100.00;102155.19;2047370;28;20334;-60
2022/11/26 01:27:01;;;;;;;7.53;6.03;;;;;;;5.61;100.00;102156.72;2047039;29;20321;-59
2022/11/26 01:28:02;;;;;;;10.60;6.30;;;;;;;5.53;100.00;102162.44;2047147;28;20203;-61
2022/11/26 01:29:03;;;;;;;9.83;6.20;;;;;;;5.58;100.00;102160.16;2047474;28;20623;-61
2022/11/26 01:30:17;;;;;;;8.10;6.30;;;;;;;5.38;100.00;102147.56;2047514;28;20206;-60
2022/11/26 01:31:25;;;;;;;6.68;5.97;;;;;;;5.57;100.00;102155.84;2047117;28;21020;-60
2022/11/26 01:32:26;;;;;;;8.55;6.30;;;;;;;5.57;100.00;102161.34;2046922;28;20222;-60
2022/11/26 01:33:26;;;;;;;7.53;5.93;;;;;;;5.56;100.00;102148.75;2047728;28;20209;-60
2022/11/26 01:34:26;;;;;;;7.80;5.70;;;;;;;5.55;100.00;102149.88;2046925;28;20214;-61
2022/11/26 01:35:27;;;;;;;7.53;5.70;;;;;;;5.53;100.00;102149.44;2046896;28;20191;-60
2022/11/26 01:36:31;;;;;;;7.33;6.10;;;;;;;5.57;100.00;102155.03;2047834;28;20306;-60
2022/11/26 01:37:32;;;;;;;9.23;6.15;;;;;;;5.51;100.00;102146.28;2047954;29;20190;-60
2022/11/26 01:38:32;;;;;;;6.60;5.67;;;;;;;5.55;100.00;102158.13;2047220;28;20186;-61
2022/11/26 01:39:32;;;;;;;8.93;5.93;;;;;;;5.56;100.00;102157.00;2046837;28;20195;-61
2022/11/26 01:40:52;;;;;;;7.53;5.83;;;;;;;5.50;100.00;102157.63;2047187;28;20641;-61
2022/11/26 01:42:04;;;;;;;9.60;6.25;;;;;;;5.54;100.00;102153.00;2046785;28;20745;-60
2022/11/26 01:43:21;;;;;;;8.23;5.95;;;;;;;5.52;100.00;102155.31;2047326;28;20194;-61
2022/11/26 01:44:28;;;;;;;8.48;6.18;;;;;;;5.06;100.00;102077.38;2047759;28;20197;-61
2022/11/26 01:45:28;;;;;;;7.93;6.28;;;;;;;5.47;100.00;102159.16;2047368;28;20191;-60
2022/11/26 01:46:33;;;;;;;10.00;5.97;;;;;;;5.47;100.00;102159.16;2047444;28;20191;-61
2022/11/26 01:47:33;;;;;;;8.27;6.10;;;;;;;5.46;100.00;102145.75;2047682;28;20226;-60
2022/11/26 01:48:34;;;;;;;9.00;6.00;;;;;;;5.44;100.00;102146.13;2047069;28;20190;-60
2022/11/26 01:49:35;;;;;;;10.07;6.10;;;;;;;5.04;100.00;102076.16;2046741;28;20198;-61
2022/11/26 01:50:35;;;;;;;7.73;5.30;;;;;;;5.47;100.00;102139.91;2046293;28;20191;-60
2022/11/26 01:51:36;;;;;;;6.93;5.60;;;;;;;5.06;100.00;102102.09;2046961;29;20184;-62
2022/11/26 01:52:36;;;;;;;6.17;5.27;;;;;;;5.41;100.00;102152.34;2047875;28;20554;-61
2022/11/26 01:53:43;;;;;;;7.87;5.97;;;;;;;5.43;100.00;102147.28;2047257;28;20198;-61
2022/11/26 01:54:44;;;;;;;9.30;5.60;;;;;;;5.04;100.00;102085.19;2046112;29;20195;-60
2022/11/26 01:55:49;;;;;;;7.05;5.60;;;;;;;4.91;100.00;102053.50;2047389;28;20195;-60
2022/11/26 01:56:53;;;;;;;8.80;5.90;;;;;;;5.44;100.00;102143.38;2047346;29;20656;-61
2022/11/26 01:57:54;;;;;;;6.82;5.60;;;;;;;5.41;100.00;102146.03;2047134;28;20203;-60
2022/11/26 01:59:24;;;;;;;8.27;5.97;;;;;;;5.24;100.00;102114.28;2046155;28;20231;-60
2022/11/26 02:00:24;;;;;;;7.32;6.10;;;;;;;5.32;100.00;102146.25;2046143;28;20289;-61
2022/11/26 02:01:25;;;;;;;8.23;6.00;;;;;;;5.29;100.00;102148.94;2047469;28;20660;-60
2022/11/26 02:02:27;;;;;;;8.97;6.30;;;;;;;5.32;100.00;102151.75;2045804;28;20286;-61
2022/11/26 02:03:33;;;;;;;9.25;6.22;;;;;;;5.34;100.00;102152.19;2046672;29;20271;-61
2022/11/26 02:04:45;;;;;;;8.55;6.10;;;;;;;5.37;100.00;102148.72;2046775;28;20191;-60
2022/11/26 02:05:56;;;;;;;8.27;5.93;;;;;;;5.38;100.00;102144.03;2046984;29;20217;-60
2022/11/26 02:06:57;;;;;;;7.57;5.68;;;;;;;5.38;100.00;102144.81;2047079;29;20305;-60
2022/11/26 02:07:58;;;;;;;7.80;5.80;;;;;;;5.40;100.00;102149.97;2046524;28;20202;-61
2022/11/26 02:09:00;;;;;;;7.82;5.88;;;;;;;5.43;100.00;102143.75;2046684;29;20213;-61
2022/11/26 02:10:01;;;;;;;7.47;5.85;;;;;;;4.63;100.00;102032.84;2046725;28;20738;-60
2022/11/26 02:11:14;;;;;;;6.73;5.53;;;;;;;5.45;100.00;102149.69;2047127;28;20182;-61
2022/11/26 02:12:15;;;;;;;7.38;5.93;;;;;;;5.37;100.00;102154.22;2046700;29;20189;-60
2022/11/26 02:13:15;;;;;;;7.67;5.90;;;;;;;5.28;100.00;102147.34;2047598;28;20252;-62
2022/11/26 02:14:23;;;;;;;7.53;5.87;;;;;;;5.24;100.00;102152.75;2047537;29;20228;-60
2022/11/26 02:15:29;;;;;;;7.65;6.30;;;;;;;4.42;100.00;102035.91;2046983;29;20188;-60
2022/11/26 02:16:54;;;;;;;8.60;6.32;;;;;;;4.93;100.00;102111.63;2046937;28;20230;-60
2022/11/26 02:18:03;;;;;;;7.90;5.93;;;;;;;4.69;100.00;102054.19;2046992;29;20218;-60
2022/11/26 02:19:15;;;;;;;8.32;5.97;;;;;;;5.34;100.00;102154.16;2046659;29;20314;-60
2022/11/26 02:20:24;;;;;;;10.30;6.13;;;;;;;5.33;100.00;102156.09;2046492;29;20191;-60
2022/11/26 02:21:26;;;;;;;9.20;6.00;;;;;;;5.28;100.00;102153.63;2046477;29;20738;-59
2022/11/26 02:22:48;;;;;;;7.68;5.90;;;;;;;5.28;100.00;102161.88;2046841;28;20276;-60
2022/11/26 02:24:10;;;;;;;6.80;5.90;;;;;;;5.22;100.00;102144.06;2046596;29;20179;-61
2022/11/26 02:25:39;;;;;;;8.30;6.18;;;;;;;5.37;100.00;102162.47;2047063;28;20208;-60
2022/11/26 02:27:06;;;;;;;9.07;6.07;;;;;;;5.42;100.00;102164.13;2050785;28;20207;-61
2022/11/26 02:28:24;;;;;;;8.05;5.95;;;;;;;5.42;100.00;102161.38;2046778;29;20174;-60
2022/11/26 02:29:48;;;;;;;8.10;5.90;;;;;;;4.38;100.00;101990.31;2053339;28;20632;-61
2022/11/26 02:31:12;;;;;;;7.22;6.15;;;;;;;4.45;100.00;102015.97;2049646;28;20657;-60
2022/11/26 02:32:18;;;;;;;8.90;6.60;;;;;;;5.40;100.00;102167.25;2046719;28;20221;-60
2022/11/26 02:33:26;;;;;;;8.30;6.13;;;;;;;5.44;100.00;102161.84;2046901;28;20193;-60
2022/11/26 02:34:36;;;;;;;9.00;6.85;;;;;;;5.43;100.00;102154.75;2046837;29;20206;-61
2022/11/26 02:35:46;;;;;;;9.57;6.78;;;;;;;5.42;100.00;102158.63;2046585;29;20206;-60
2022/11/26 02:36:52;;;;;;;8.55;6.05;;;;;;;5.45;100.00;102177.97;2047096;28;20229;-61
2022/11/26 02:38:17;;;;;;;9.27;6.80;;;;;;;5.37;100.00;102162.47;2047277;28;20199;-61
2022/11/26 02:39:20;;;;;;;7.95;6.75;;;;;;;5.34;100.00;102151.41;2046492;29;20272;-60
2022/11/26 02:40:21;;;;;;;8.65;6.57;;;;;;;5.40;100.00;102156.25;2046337;29;20198;-60
2022/11/26 02:41:22;;;;;;;9.13;6.95;;;;;;;5.39;100.00;102162.13;2047297;28;20198;-61
2022/11/26 02:42:30;;;;;;;8.50;6.50;;;;;;;5.41;100.00;102162.53;2046851;28;20278;-60
2022/11/26 02:43:32;;;;;;;8.85;6.43;;;;;;;4.58;100.00;102024.91;2046730;28;20234;-61
2022/11/26 02:44:43;;;;;;;7.50;5.63;;;;;;;5.44;100.00;102154.38;2047095;28;20195;-61
2022/11/26 02:45:51;;;;;;;8.50;6.35;;;;;;;5.44;100.00;102161.84;2046719;28;20576;-60
2022/11/26 02:47:10;;;;;;;7.60;6.25;;;;;;;5.39;100.00;102156.63;2047111;28;20210;-60
2022/11/26 02:48:17;;;;;;;10.75;7.32;;;;;;;4.94;100.00;102110.50;2046642;28;20202;-60
2022/11/26 02:49:21;;;;;;;8.52;6.88;;;;;;;5.32;100.00;102165.50;2046403;28;20206;-61
2022/11/26 02:50:28;;;;;;;9.88;6.65;;;;;;;5.31;100.00;102161.16;2046616;28;20187;-60
2022/11/26 02:51:29;;;;;;;9.38;6.65;;;;;;;5.30;100.00;102167.81;2047087;29;20278;-60
2022/11/26 02:52:32;;;;;;;10.30;7.10;;;;;;;5.19;100.00;102150.28;2046779;28;20186;-60
2022/11/26 02:53:36;;;;;;;10.48;7.95;;;;;;;4.34;100.00;102031.41;2047197;28;20187;-60
2022/11/26 02:54:38;;;;;;;8.85;6.35;;;;;;;5.20;100.00;102181.31;2047389;28;20196;-60
2022/11/26 02:55:44;;;;;;;8.32;6.40;;;;;;;5.14;100.00;102175.28;2046927;28;20201;-60
2022/11/26 02:56:45;;;;;;;7.85;6.38;;;;;;;5.13;100.00;102173.69;2046807;28;20225;-60
2022/11/26 02:57:50;;;;;;;8.33;6.23;;;;;;;4.61;100.00;102088.13;2046726;28;20199;-61
2022/11/26 02:58:53;;;;;;;8.93;6.53;;;;;;;5.18;100.00;102181.66;2046313;29;20221;-60
2022/11/26 02:59:53;;;;;;;8.68;6.63;;;;;;;5.14;100.00;102183.53;2047007;28;20203;-61
2022/11/26 03:00:57;;;;;;;8.30;6.60;;;;;;;4.22;100.00;102037.00;2046801;28;20276;-61
2022/11/26 03:02:01;;;;;;;7.30;6.00;;;;;;;5.16;100.00;102174.94;2053746;28;21000;-60
2022/11/26 03:03:22;;;;;;;9.07;6.55;;;;;;;5.16;100.00;102177.69;2045763;28;20759;-61
2022/11/26 03:04:32;;;;;;;7.78;6.10;;;;;;;5.03;100.00;102174.25;2045963;28;20206;-60
2022/11/26 03:05:36;;;;;;;9.30;7.10;;;;;;;5.00;100.00;102172.25;2046517;28;20701;-60
2022/11/26 03:06:38;;;;;;;9.48;7.50;;;;;;;4.87;100.00;102161.72;2047192;28;20189;-61
2022/11/26 03:07:40;;;;;;;9.82;6.95;;;;;;;5.05;100.00;102184.91;2047220;28;20193;-60
2022/11/26 03:08:44;;;;;;;9.23;7.18;;;;;;;5.04;100.00;102177.81;2046489;28;20190;-61
2022/11/26 03:09:54;;;;;;;10.27;7.85;;;;;;;4.98;100.00;102157.25;2046855;28;20193;-60
2022/11/26 03:10:54;;;;;;;9.60;7.13;;;;;;;5.14;100.00;102178.03;2046475;28;20681;-60
2022/11/26 03:11:55;;;;;;;8.90;7.00;;;;;;;5.13;100.00;102184.69;2047332;28;20737;-60
2022/11/26 03:12:55;;;;;;;8.07;6.57;;;;;;;5.12;100.00;102183.09;2046338;29;20204;-61
2022/11/26 03:13:55;;;;;;;9.17;7.27;;;;;;;5.15;100.00;102182.41;2046474;28;20213;-60
2022/11/26 03:14:56;;;;;;;9.27;7.50;;;;;;;5.14;100.00;102183.53;2047010;28;20195;-60
2022/11/26 03:15:57;;;;;;;9.83;7.27;;;;;;;5.09;100.00;102167.34;2046157;28;20242;-61
2022/11/26 03:16:57;;;;;;;8.47;6.83;;;;;;;5.22;100.00;102182.56;2048159;28;20275;-60
2022/11/26 03:17:58;;;;;;;8.47;6.70;;;;;;;5.27;100.00;102190.53;2048593;28;20201;-60
2022/11/26 03:18:58;;;;;;;8.70;6.83;;;;;;;5.29;100.00;102187.41;2048019;29;20213;-60
2022/11/26 03:19:59;;;;;;;8.27;6.77;;;;;;;4.61;100.00;102090.09;2048913;29;20258;-61
2022/11/26 03:20:59;;;;;;;11.73;6.80;;;;;;;4.75;100.00;102096.69;2048252;29;20333;-60
2022/11/26 03:22:00;;;;;;;9.10;6.27;;;;;;;5.21;100.00;102193.91;2048486;28;20199;-60
2022/11/26 03:23:01;;;;;;;9.13;7.10;;;;;;;5.29;100.00;102187.41;2048479;29;20198;-60
2022/11/26 03:24:01;;;;;;;12.50;7.37;;;;;;;5.31;100.00;102188.66;2048466;28;20197;-61
2022/11/26 03:25:03;;;;;;;7.90;6.57;;;;;;;5.32;100.00;102189.44;2048094;28;20740;-62
2022/11/26 03:26:04;;;;;;;7.38;6.43;;;;;;;5.36;100.00;102191.13;2047774;28;20743;-60
2022/11/26 03:27:04;;;;;;;8.90;6.53;;;;;;;5.39;100.00;102187.63;2048384;28;20616;-60
2022/11/26 03:28:05;;;;;;;7.87;6.17;;;;;;;5.41;100.00;102190.84;2048403;28;20191;-60
2022/11/26 03:29:06;;;;;;;9.53;7.10;;;;;;;5.45;100.00;102191.72;2055801;28;20174;-61
2022/11/26 03:30:07;;;;;;;7.97;6.03;;;;;;;5.48;100.00;102196.50;2055379;28;20568;-60
2022/11/26 03:31:07;;;;;;;8.63;6.07;;;;;;;5.48;100.00;102202.00;2047835;28;20199;-61
2022/11/26 03:32:07;;;;;;;9.17;7.10;;;;;;;5.47;100.00;102202.34;2047987;28;20196;-60
2022/11/26 03:33:08;;;;;;;7.47;6.00;;;;;;;5.45;100.00;102197.22;2048413;29;20194;-60
2022/11/26 03:34:08;;;;;;;8.80;6.77;;;;;;;5.39;100.00;102193.13;2048044;29;20202;-61
2022/11/26 03:35:09;;;;;;;8.70;6.67;;;;;;;5.42;100.00;102199.88;2047261;28;20277;-60
2022/11/26 03:36:09;;;;;;;8.77;6.50;;;;;;;5.43;100.00;102207.00;2047933;28;20210;-61
2022/11/26 03:37:10;;;;;;;10.00;6.20;;;;;;;5.44;100.00;102209.34;2048791;28;20179;-60
2022/11/26 03:38:10;;;;;;;7.97;6.60;;;;;;;5.46;100.00;102214.50;2048406;28;20733;-61
2022/11/26 03:39:11;;;;;;;10.23;6.53;;;;;;;4.36;100.00;102036.56;2047905;28;20213;-61
2022/11/26 03:40:12;;;;;;;8.37;6.43;;;;;;;5.45;100.00;102204.66;2048100;28;20199;-60
2022/11/26 03:41:12;;;;;;;7.75;6.15;;;;;;;5.24;100.00;102179.47;2047391;28;20226;-61
2022/11/26 03:42:13;;;;;;;7.97;6.30;;;;;;;5.42;100.00;102202.63;2047198;29;20219;-60
2022/11/26 03:43:13;;;;;;;8.70;6.70;;;;;;;5.45;100.00;102212.91;2048568;28;20193;-61
2022/11/26 03:44:14;;;;;;;8.93;6.97;;;;;;;5.44;100.00;102214.84;2047870;28;20183;-60
2022/11/26 03:45:14;;;;;;;9.70;6.93;;;;;;;4.92;100.00;102151.25;2048094;28;20210;-61
2022/11/26 03:46:15;;;;;;;9.43;7.33;;;;;;;5.28;100.00;102186.59;2048305;28;20253;-61
2022/11/26 03:47:15;;;;;;;9.97;8.27;;;;;;;5.50;100.00;102216.19;2047970;28;20194;-61
2022/11/26 03:48:16;;;;;;;9.40;8.10;;;;;;;5.52;100.00;102224.06;2047705;28;20217;-60
2022/11/26 03:49:16;;;;;;;10.47;8.13;;;;;;;5.55;100.00;102220.59;2047121;28;20183;-61
2022/11/26 03:50:17;;;;;;;9.37;7.60;;;;;;;5.56;100.00;102225.75;2048212;28;20233;-60
2022/11/26 03:51:17;;;;;;;8.53;7.40;;;;;;;5.62;100.00;102231.75;2047815;28;20266;-60
2022/11/26 03:52:18;;;;;;;10.27;8.20;;;;;;;5.61;100.00;102225.47;2048333;28;20183;-61
2022/11/26 03:53:18;;;;;;;9.47;7.53;;;;;;;5.59;100.00;102237.97;2048669;28;20217;-61
2022/11/26 03:54:19;;;;;;;9.97;8.10;;;;;;;5.66;100.00;102233.44;2048200;29;20187;-60
2022/11/26 03:55:19;;;;;;;9.80;7.50;;;;;;;5.69;100.00;102234.66;2047829;28;20180;-61
2022/11/26 03:56:20;;;;;;;8.23;7.20;;;;;;;5.63;100.00;102242.38;2048052;28;20194;-60
2022/11/26 03:57:21;;;;;;;11.27;7.37;;;;;;;5.24;100.00;102198.69;2048433;28;20673;-61
2022/11/26 03:58:21;;;;;;;9.75;8.20;;;;;;;5.61;100.00;102239.22;2048292;28;20198;-60
2022/11/26 03:59:22;;;;;;;12.37;8.43;;;;;;;5.53;100.00;102251.19;2047563;28;20287;-61
2022/11/26 04:00:22;;;;;;;11.33;8.87;;;;;;;5.56;100.00;102241.44;2047556;28;20273;-60
2022/11/26 04:01:23;;;;;;;10.23;7.83;;;;;;;5.08;100.00;102168.47;2048569;29;20258;-60
2022/11/26 04:02:23;;;;;;;10.47;8.27;;;;;;;5.59;100.00;102238.75;2047792;28;20277;-60
2022/11/26 04:03:24;;;;;;;9.20;8.20;;;;;;;5.69;100.00;102253.91;2047638;28;20191;-60
2022/11/26 04:04:24;;;;;;;10.37;8.23;;;;;;;5.72;100.00;102254.00;2047117;29;20759;-60
2022/11/26 04:05:24;;;;;;;9.67;8.33;;;;;;;5.73;100.00;102258.31;2047724;29;20195;-60
2022/11/26 04:06:25;;;;;;;9.63;8.03;;;;;;;5.74;100.00;102256.38;2048063;29;20278;-60
2022/11/26 04:07:25;;;;;;;8.90;7.63;;;;;;;5.74;100.00;102253.63;2047152;28;20184;-61
2022/11/26 04:08:26;;;;;;;9.67;7.80;;;;;;;4.95;100.00;102139.53;2048103;28;20651;-60
2022/11/26 04:09:26;;;;;;;11.13;8.27;;;;;;;5.71;100.00;102260.66;2048087;29;20180;-60
2022/11/26 04:10:28;;;;;;;10.93;9.00;;;;;;;5.77;100.00;102266.66;2047547;28;20215;-60
2022/11/26 04:11:28;;;;;;;11.50;8.20;;;;;;;5.74;100.00;102268.16;2048350;28;20188;-61
2022/11/26 04:12:28;;;;;;;12.30;8.00;;;;;;;5.22;100.00;102179.81;2047883;28;20215;-60
2022/11/26 04:13:29;;;;;;;11.43;8.10;;;;;;;5.76;100.00;102273.31;2047971;29;20267;-61
2022/11/26 04:14:29;;;;;;;14.80;9.00;;;;;;;5.70;100.00;102259.03;2047555;28;20188;-61
2022/11/26 04:15:30;;;;;;;13.90;9.07;;;;;;;4.71;100.00;102103.25;2047893;28;20555;-61
2022/11/26 04:16:30;;;;;;;16.60;9.40;;;;;;;5.60;100.00;102247.81;2047370;28;20246;-60
2022/11/26 04:17:31;;;;;;;17.73;8.80;;;;;;;5.60;100.00;102256.84;2048528;28;20261;-61
2022/11/26 04:18:31;;;;;;;12.47;8.10;;;;;;;5.69;100.00;102278.69;2048361;28;20218;-60
2022/11/26 04:19:32;;;;;;;14.50;8.10;;;;;;;5.66;100.00;102271.94;2047276;28;20571;-60
2022/11/26 04:20:32;;;;;;;18.00;9.33;;;;;;;5.65;100.00;102275.81;2047744;28;20278;-60
2022/11/26 04:21:33;;;;;;;15.73;8.73;;;;;;;5.62;100.00;102298.56;2047703;28;20613;-60
2022/11/26 04:22:33;;;;;;;18.77;10.03;;;;;;;5.63;100.00;102282.84;2047690;28;20187;-60
2022/11/26 04:23:35;;;;;;;13.97;9.70;;;;;;;5.60;100.00;102298.09;2048133;28;20719;-61
2022/11/26 04:24:35;;;;;;;10.02;7.90;;;;;;;5.52;100.00;102287.31;2047660;28;20202;-60
2022/11/26 04:25:35;;;;;;;9.90;7.77;;;;;;;5.50;100.00;102273.94;2047440;28;20753;-60
2022/11/26 04:26:36;;;;;;;13.67;7.77;;;;;;;5.35;100.00;102265.69;2047248;29;20180;-61
2022/11/26 04:27:36;;;;;;;11.57;8.13;;;;;;;5.44;100.00;102282.81;2045996;28;20212;-61
2022/11/26 04:28:37;;;;;;;9.33;6.83;;;;;;;4.86;100.00;102204.06;2047587;29;20203;-61
2022/11/26 04:29:37;;;;;;;9.20;7.03;;;;;;;5.37;100.00;102286.19;2047357;29;20197;-60
2022/11/26 04:30:38;;;;;;;9.30;7.30;;;;;;;5.38;100.00;102284.25;2047682;28;20228;-60
2022/11/26 04:31:38;;;;;;;9.33;7.10;;;;;;;5.38;100.00;102296.03;2047840;28;20186;-60
2022/11/26 04:32:39;;;;;;;13.60;7.70;;;;;;;5.35;100.00;102291.25;2048047;28;20176;-60
2022/11/26 04:33:39;;;;;;;9.13;6.90;;;;;;;5.29;100.00;102280.88;2048068;28;20238;-61
2022/11/26 04:34:39;;;;;;;11.87;7.40;;;;;;;5.38;100.00;102295.25;2047952;28;20270;-61
2022/11/26 04:35:40;;;;;;;9.77;7.20;;;;;;;5.19;100.00;102262.19;2047615;28;20189;-62
2022/11/26 04:36:40;;;;;;;10.87;8.20;;;;;;;5.33;100.00;102314.75;2047573;28;20747;-60
2022/11/26 04:37:41;;;;;;;10.27;7.77;;;;;;;5.35;100.00;102296.75;2048037;28;20272;-60
2022/11/26 04:38:41;;;;;;;12.00;8.77;;;;;;;5.22;100.00;102283.44;2047732;28;20686;-60
2022/11/26 04:39:41;;;;;;;13.20;9.07;;;;;;;5.31;100.00;102295.88;2046843;28;20522;-60
2022/11/26 04:40:42;;;;;;;10.63;8.23;;;;;;;5.31;100.00;102298.63;2047209;28;20744;-60
2022/11/26 04:41:43;;;;;;;10.47;7.93;;;;;;;5.26;100.00;102278.84;2047761;29;20282;-60
2022/11/26 04:42:43;;;;;;;10.17;7.97;;;;;;;5.42;100.00;102307.91;2048262;28;20184;-60
2022/11/26 04:43:43;;;;;;;9.50;7.57;;;;;;;5.38;100.00;102298.00;2047896;28;20195;-60
2022/11/26 04:44:44;;;;;;;8.50;6.83;;;;;;;5.33;100.00;102301.78;2047746;28;20188;-61
2022/11/26 04:45:44;;;;;;;9.30;7.60;;;;;;;5.36;100.00;102298.34;2047420;28;20270;-61
2022/11/26 04:46:45;;;;;;;9.97;7.60;;;;;;;5.40;100.00;102301.16;2047711;28;20230;-61
2022/11/26 04:47:45;;;;;;;10.13;8.10;;;;;;;5.39;100.00;102302.34;2047382;28;20203;-61
2022/11/26 04:48:46;;;;;;;9.77;7.60;;;;;;;5.40;100.00;102306.66;2047723;28;20331;-61
2022/11/26 04:49:46;;;;;;;12.50;7.80;;;;;;;5.39;100.00;102311.34;2047598;29;20736;-60
2022/11/26 04:50:48;;;;;;;11.60;8.10;;;;;;;5.41;100.00;102308.25;2047732;28;20678;-60
2022/11/26 04:51:49;;;;;;;10.60;8.35;;;;;;;5.38;100.00;102304.28;2047710;28;20188;-60
2022/11/26 04:52:49;;;;;;;10.57;8.33;;;;;;;5.29;100.00;102308.38;2047543;28;20191;-60
2022/11/26 04:53:50;;;;;;;13.43;9.37;;;;;;;5.29;100.00;102309.16;2047535;28;20468;-61